sensor_id;sensor_type;location;lat;lon;timestamp;P1;durP1;ratioP1;P2;durP2;ratioP2
20271;SDS011;10295;49.812;9.866;2022-11-23T00:00:06;20.97;;;8.20;;
20271;SDS011;10295;49.812;9.866;2022-11-23T00:02:34;17.57;;;6.57;;
20271;SDS011;10295;49.812;9.866;2022-11-23T00:05:01;16.60;;;5.70;;
20271;SDS011;10295;49.812;9.866;2022-11-23T00:07:28;16.23;;;4.70;;
20271;SDS011;10295;49.812;9.866;2022-11-23T00:09:55;12.67;;;3.57;;
20271;SDS011;10295;49.812;9.866;2022-11-23T00:12:22;15.20;;;3.37;;
20271;SDS011;10295;49.812;9.866;2022-11-23T00:14:49;16.17;;;3.40;;
20271;SDS011;10295;49.812;9.866;2022-11-23T00:17:17;13.30;;;3.47;;
20271;SDS011;10295;49.812;9.866;2022-11-23T00:19:44;10.43;;;3.43;;
20271;SDS011;10295;49.812;9.866;2022-11-23T00:22:11;17.33;;;5.50;;
20271;SDS011;10295;49.812;9.866;2022-11-23T00:24:38;15.37;;;5.40;;
20271;SDS011;10295;49.812;9.866;2022-11-23T00:27:05;13.20;;;5.83;;
20271;SDS011;10295;49.812;9.866;2022-11-23T00:29:32;16.70;;;4.47;;
20271;SDS011;10295;49.812;9.866;2022-11-23T00:31:59;19.37;;;6.30;;
20271;SDS011;10295;49.812;9.866;2022-11-23T00:34:26;16.23;;;4.73;;
20271;SDS011;10295;49.812;9.866;2022-11-23T00:36:53;15.63;;;4.00;;
20271;SDS011;10295;49.812;9.866;2022-11-23T00:39:21;13.20;;;3.00;;
20271;SDS011;10295;49.812;9.866;2022-11-23T00:41:48;13.37;;;3.07;;
20271;SDS011;10295;49.812;9.866;2022-11-23T00:44:15;17.97;;;4.30;;
20271;SDS011;10295;49.812;9.866;2022-11-23T00:46:42;18.87;;;4.37;;
20271;SDS011;10295;49.812;9.866;2022-11-23T00:49:09;16.10;;;4.63;;
20271;SDS011;10295;49.812;9.866;2022-11-23T00:51:36;14.33;;;4.10;;
20271;SDS011;10295;49.812;9.866;2022-11-23T00:54:04;13.73;;;3.40;;
20271;SDS011;10295;49.812;9.866;2022-11-23T00:56:32;13.17;;;5.87;;
20271;SDS011;10295;49.812;9.866;2022-11-23T00:59:00;19.47;;;5.27;;
20271;SDS011;10295;49.812;9.866;2022-11-23T01:01:28;22.97;;;7.10;;
20271;SDS011;10295;49.812;9.866;2022-11-23T01:03:57;15.43;;;4.23;;
20271;SDS011;10295;49.812;9.866;2022-11-23T01:06:28;12.03;;;3.50;;
20271;SDS011;10295;49.812;9.866;2022-11-23T01:08:59;11.53;;;3.27;;
20271;SDS011;10295;49.812;9.866;2022-11-23T01:11:27;14.77;;;3.50;;
20271;SDS011;10295;49.812;9.866;2022-11-23T01:13:55;13.67;;;4.20;;
20271;SDS011;10295;49.812;9.866;2022-11-23T01:16:24;13.70;;;4.23;;
20271;SDS011;10295;49.812;9.866;2022-11-23T01:18:55;15.03;;;4.73;;
20271;SDS011;10295;49.812;9.866;2022-11-23T01:21:23;16.20;;;4.87;;
20271;SDS011;10295;49.812;9.866;2022-11-23T01:23:50;12.93;;;5.13;;
20271;SDS011;10295;49.812;9.866;2022-11-23T01:26:17;13.43;;;5.20;;
20271;SDS011;10295;49.812;9.866;2022-11-23T01:28:44;17.93;;;5.50;;
20271;SDS011;10295;49.812;9.866;2022-11-23T01:31:13;17.33;;;4.73;;
20271;SDS011;10295;49.812;9.866;2022-11-23T01:33:40;11.30;;;4.00;;
20271;SDS011;10295;49.812;9.866;2022-11-23T01:36:17;12.03;;;3.83;;
20271;SDS011;10295;49.812;9.866;2022-11-23T01:38:45;14.23;;;4.17;;
20271;SDS011;10295;49.812;9.866;2022-11-23T01:41:14;12.20;;;4.33;;
20271;SDS011;10295;49.812;9.866;2022-11-23T01:43:41;18.37;;;5.03;;
20271;SDS011;10295;49.812;9.866;2022-11-23T01:46:08;15.00;;;4.87;;
20271;SDS011;10295;49.812;9.866;2022-11-23T01:51:04;19.33;;;6.47;;
20271;SDS011;10295;49.812;9.866;2022-11-23T01:53:32;16.20;;;6.90;;
20271;SDS011;10295;49.812;9.866;2022-11-23T01:56:00;18.70;;;7.03;;
20271;SDS011;10295;49.812;9.866;2022-11-23T01:58:29;19.00;;;7.33;;
20271;SDS011;10295;49.812;9.866;2022-11-23T02:00:58;21.57;;;7.33;;
20271;SDS011;10295;49.812;9.866;2022-11-23T02:03:26;20.30;;;7.33;;
20271;SDS011;10295;49.812;9.866;2022-11-23T02:05:55;19.77;;;7.60;;
20271;SDS011;10295;49.812;9.866;2022-11-23T02:08:26;17.37;;;7.47;;
20271;SDS011;10295;49.812;9.866;2022-11-23T02:10:56;20.87;;;7.43;;
20271;SDS011;10295;49.812;9.866;2022-11-23T02:13:24;21.53;;;7.70;;
20271;SDS011;10295;49.812;9.866;2022-11-23T02:15:51;17.70;;;7.70;;
20271;SDS011;10295;49.812;9.866;2022-11-23T02:18:22;19.40;;;7.50;;
20271;SDS011;10295;49.812;9.866;2022-11-23T02:20:50;18.87;;;7.43;;
20271;SDS011;10295;49.812;9.866;2022-11-23T02:26:28;18.70;;;7.43;;
20271;SDS011;10295;49.812;9.866;2022-11-23T02:29:07;15.67;;;7.27;;
20271;SDS011;10295;49.812;9.866;2022-11-23T02:31:36;20.67;;;7.40;;
20271;SDS011;10295;49.812;9.866;2022-11-23T02:34:03;20.50;;;7.60;;
20271;SDS011;10295;49.812;9.866;2022-11-23T02:39:05;15.17;;;7.13;;
20271;SDS011;10295;49.812;9.866;2022-11-23T02:41:36;18.07;;;7.03;;
20271;SDS011;10295;49.812;9.866;2022-11-23T02:44:04;22.53;;;6.97;;
20271;SDS011;10295;49.812;9.866;2022-11-23T02:46:35;18.13;;;6.93;;
20271;SDS011;10295;49.812;9.866;2022-11-23T02:49:02;19.73;;;6.70;;
20271;SDS011;10295;49.812;9.866;2022-11-23T02:51:29;16.37;;;6.50;;
20271;SDS011;10295;49.812;9.866;2022-11-23T02:53:56;18.70;;;6.13;;
20271;SDS011;10295;49.812;9.866;2022-11-23T02:56:23;19.60;;;6.80;;
20271;SDS011;10295;49.812;9.866;2022-11-23T02:58:50;19.33;;;6.30;;
20271;SDS011;10295;49.812;9.866;2022-11-23T03:01:17;14.50;;;5.90;;
20271;SDS011;10295;49.812;9.866;2022-11-23T03:03:45;18.00;;;5.37;;
20271;SDS011;10295;49.812;9.866;2022-11-23T03:06:12;15.90;;;5.27;;
20271;SDS011;10295;49.812;9.866;2022-11-23T03:08:39;15.67;;;5.30;;
20271;SDS011;10295;49.812;9.866;2022-11-23T03:11:06;17.47;;;5.10;;
20271;SDS011;10295;49.812;9.866;2022-11-23T03:13:33;13.43;;;4.43;;
20271;SDS011;10295;49.812;9.866;2022-11-23T03:16:00;16.73;;;5.03;;
20271;SDS011;10295;49.812;9.866;2022-11-23T03:18:27;13.33;;;4.83;;
20271;SDS011;10295;49.812;9.866;2022-11-23T03:20:54;17.00;;;4.90;;
20271;SDS011;10295;49.812;9.866;2022-11-23T03:23:21;13.33;;;4.87;;
20271;SDS011;10295;49.812;9.866;2022-11-23T03:25:56;16.60;;;5.33;;
20271;SDS011;10295;49.812;9.866;2022-11-23T03:28:23;17.07;;;4.80;;
20271;SDS011;10295;49.812;9.866;2022-11-23T03:30:50;15.77;;;5.07;;
20271;SDS011;10295;49.812;9.866;2022-11-23T03:33:17;13.00;;;4.63;;
20271;SDS011;10295;49.812;9.866;2022-11-23T03:35:45;12.77;;;4.60;;
20271;SDS011;10295;49.812;9.866;2022-11-23T03:38:12;18.53;;;4.10;;
20271;SDS011;10295;49.812;9.866;2022-11-23T03:40:39;12.43;;;4.43;;
20271;SDS011;10295;49.812;9.866;2022-11-23T03:43:06;12.73;;;4.23;;
20271;SDS011;10295;49.812;9.866;2022-11-23T03:45:34;14.77;;;4.17;;
20271;SDS011;10295;49.812;9.866;2022-11-23T03:48:01;10.93;;;4.60;;
20271;SDS011;10295;49.812;9.866;2022-11-23T03:50:28;15.53;;;4.27;;
20271;SDS011;10295;49.812;9.866;2022-11-23T03:52:55;15.20;;;4.20;;
20271;SDS011;10295;49.812;9.866;2022-11-23T03:55:22;13.93;;;4.63;;
20271;SDS011;10295;49.812;9.866;2022-11-23T03:57:49;13.83;;;4.23;;
20271;SDS011;10295;49.812;9.866;2022-11-23T04:00:18;16.37;;;4.23;;
20271;SDS011;10295;49.812;9.866;2022-11-23T04:02:46;13.20;;;3.83;;
20271;SDS011;10295;49.812;9.866;2022-11-23T04:05:13;13.47;;;3.93;;
20271;SDS011;10295;49.812;9.866;2022-11-23T04:07:40;14.53;;;3.77;;
20271;SDS011;10295;49.812;9.866;2022-11-23T04:10:07;14.13;;;4.13;;
20271;SDS011;10295;49.812;9.866;2022-11-23T04:12:35;12.97;;;4.13;;
20271;SDS011;10295;49.812;9.866;2022-11-23T04:15:02;14.37;;;3.90;;
20271;SDS011;10295;49.812;9.866;2022-11-23T04:17:30;13.03;;;3.73;;
20271;SDS011;10295;49.812;9.866;2022-11-23T04:19:57;14.10;;;4.10;;
20271;SDS011;10295;49.812;9.866;2022-11-23T04:22:24;12.87;;;4.20;;
20271;SDS011;10295;49.812;9.866;2022-11-23T04:24:51;17.20;;;3.73;;
20271;SDS011;10295;49.812;9.866;2022-11-23T04:27:18;14.70;;;4.17;;
20271;SDS011;10295;49.812;9.866;2022-11-23T04:29:45;10.47;;;4.00;;
20271;SDS011;10295;49.812;9.866;2022-11-23T04:32:12;12.80;;;3.80;;
20271;SDS011;10295;49.812;9.866;2022-11-23T04:34:40;14.80;;;3.97;;
20271;SDS011;10295;49.812;9.866;2022-11-23T04:37:07;12.57;;;3.60;;
20271;SDS011;10295;49.812;9.866;2022-11-23T04:39:38;11.43;;;3.90;;
20271;SDS011;10295;49.812;9.866;2022-11-23T04:42:05;13.83;;;3.60;;
20271;SDS011;10295;49.812;9.866;2022-11-23T04:44:32;17.07;;;3.83;;
20271;SDS011;10295;49.812;9.866;2022-11-23T04:46:59;12.10;;;3.87;;
20271;SDS011;10295;49.812;9.866;2022-11-23T04:49:27;13.93;;;4.17;;
20271;SDS011;10295;49.812;9.866;2022-11-23T04:51:54;17.27;;;4.00;;
20271;SDS011;10295;49.812;9.866;2022-11-23T04:54:21;11.93;;;3.60;;
20271;SDS011;10295;49.812;9.866;2022-11-23T04:56:48;13.57;;;3.53;;
20271;SDS011;10295;49.812;9.866;2022-11-23T04:59:15;16.30;;;4.00;;
20271;SDS011;10295;49.812;9.866;2022-11-23T05:01:42;13.47;;;4.20;;
20271;SDS011;10295;49.812;9.866;2022-11-23T05:04:10;16.30;;;3.83;;
20271;SDS011;10295;49.812;9.866;2022-11-23T05:06:42;9.50;;;3.50;;
20271;SDS011;10295;49.812;9.866;2022-11-23T05:09:10;12.73;;;3.67;;
20271;SDS011;10295;49.812;9.866;2022-11-23T05:11:37;16.27;;;4.00;;
20271;SDS011;10295;49.812;9.866;2022-11-23T05:14:04;12.60;;;3.80;;
20271;SDS011;10295;49.812;9.866;2022-11-23T05:16:31;18.80;;;4.47;;
20271;SDS011;10295;49.812;9.866;2022-11-23T05:18:58;14.17;;;4.30;;
20271;SDS011;10295;49.812;9.866;2022-11-23T05:21:25;18.63;;;3.60;;
20271;SDS011;10295;49.812;9.866;2022-11-23T05:23:53;12.00;;;3.97;;
20271;SDS011;10295;49.812;9.866;2022-11-23T05:26:20;19.57;;;3.57;;
20271;SDS011;10295;49.812;9.866;2022-11-23T05:28:47;10.33;;;3.00;;
20271;SDS011;10295;49.812;9.866;2022-11-23T05:31:14;11.90;;;3.97;;
20271;SDS011;10295;49.812;9.866;2022-11-23T05:33:41;13.73;;;3.57;;
20271;SDS011;10295;49.812;9.866;2022-11-23T05:36:08;13.83;;;3.60;;
20271;SDS011;10295;49.812;9.866;2022-11-23T05:38:39;16.53;;;3.47;;
20271;SDS011;10295;49.812;9.866;2022-11-23T05:41:06;13.43;;;3.63;;
20271;SDS011;10295;49.812;9.866;2022-11-23T05:43:34;11.97;;;3.53;;
20271;SDS011;10295;49.812;9.866;2022-11-23T05:46:01;12.27;;;4.07;;
20271;SDS011;10295;49.812;9.866;2022-11-23T05:48:28;15.17;;;3.87;;
20271;SDS011;10295;49.812;9.866;2022-11-23T05:50:56;13.03;;;3.30;;
20271;SDS011;10295;49.812;9.866;2022-11-23T05:53:30;14.87;;;3.30;;
20271;SDS011;10295;49.812;9.866;2022-11-23T05:55:58;16.23;;;3.87;;
20271;SDS011;10295;49.812;9.866;2022-11-23T05:58:26;14.30;;;3.77;;
20271;SDS011;10295;49.812;9.866;2022-11-23T06:00:57;16.50;;;3.33;;
20271;SDS011;10295;49.812;9.866;2022-11-23T06:03:24;13.43;;;3.73;;
20271;SDS011;10295;49.812;9.866;2022-11-23T06:05:52;8.20;;;2.90;;
20271;SDS011;10295;49.812;9.866;2022-11-23T06:08:19;13.30;;;3.37;;
20271;SDS011;10295;49.812;9.866;2022-11-23T06:10:46;12.07;;;3.37;;
20271;SDS011;10295;49.812;9.866;2022-11-23T06:13:13;14.27;;;3.50;;
20271;SDS011;10295;49.812;9.866;2022-11-23T06:15:40;12.53;;;3.27;;
20271;SDS011;10295;49.812;9.866;2022-11-23T06:18:08;13.43;;;3.40;;
20271;SDS011;10295;49.812;9.866;2022-11-23T06:20:35;12.53;;;3.40;;
20271;SDS011;10295;49.812;9.866;2022-11-23T06:23:02;17.07;;;4.07;;
20271;SDS011;10295;49.812;9.866;2022-11-23T06:25:29;12.30;;;3.47;;
20271;SDS011;10295;49.812;9.866;2022-11-23T06:27:57;14.03;;;3.50;;
20271;SDS011;10295;49.812;9.866;2022-11-23T06:30:26;11.17;;;3.40;;
20271;SDS011;10295;49.812;9.866;2022-11-23T06:32:53;16.10;;;3.80;;
20271;SDS011;10295;49.812;9.866;2022-11-23T06:35:20;12.57;;;3.93;;
20271;SDS011;10295;49.812;9.866;2022-11-23T06:37:48;19.13;;;3.90;;
20271;SDS011;10295;49.812;9.866;2022-11-23T06:40:15;15.90;;;3.53;;
20271;SDS011;10295;49.812;9.866;2022-11-23T06:42:43;18.33;;;3.63;;
20271;SDS011;10295;49.812;9.866;2022-11-23T06:45:10;16.07;;;3.80;;
20271;SDS011;10295;49.812;9.866;2022-11-23T06:47:37;17.30;;;3.73;;
20271;SDS011;10295;49.812;9.866;2022-11-23T06:50:05;18.70;;;4.07;;
20271;SDS011;10295;49.812;9.866;2022-11-23T06:52:32;16.10;;;4.00;;
20271;SDS011;10295;49.812;9.866;2022-11-23T06:54:59;11.40;;;3.37;;
20271;SDS011;10295;49.812;9.866;2022-11-23T06:57:26;12.20;;;3.20;;
20271;SDS011;10295;49.812;9.866;2022-11-23T06:59:54;15.73;;;3.43;;
20271;SDS011;10295;49.812;9.866;2022-11-23T07:02:21;17.30;;;4.73;;
20271;SDS011;10295;49.812;9.866;2022-11-23T07:04:49;11.30;;;4.47;;
20271;SDS011;10295;49.812;9.866;2022-11-23T07:07:17;17.80;;;5.83;;
20271;SDS011;10295;49.812;9.866;2022-11-23T07:09:45;17.80;;;4.90;;
20271;SDS011;10295;49.812;9.866;2022-11-23T07:12:13;15.07;;;4.20;;
20271;SDS011;10295;49.812;9.866;2022-11-23T07:14:40;12.87;;;4.10;;
20271;SDS011;10295;49.812;9.866;2022-11-23T07:17:07;14.97;;;4.60;;
20271;SDS011;10295;49.812;9.866;2022-11-23T07:19:37;16.73;;;4.20;;
20271;SDS011;10295;49.812;9.866;2022-11-23T07:22:04;12.07;;;3.70;;
20271;SDS011;10295;49.812;9.866;2022-11-23T07:24:32;12.90;;;3.90;;
20271;SDS011;10295;49.812;9.866;2022-11-23T07:27:06;13.20;;;3.90;;
20271;SDS011;10295;49.812;9.866;2022-11-23T07:29:33;14.33;;;3.77;;
20271;SDS011;10295;49.812;9.866;2022-11-23T07:32:00;13.03;;;3.67;;
20271;SDS011;10295;49.812;9.866;2022-11-23T07:34:29;12.60;;;3.50;;
20271;SDS011;10295;49.812;9.866;2022-11-23T07:36:56;14.87;;;4.13;;
20271;SDS011;10295;49.812;9.866;2022-11-23T07:39:27;14.17;;;3.70;;
20271;SDS011;10295;49.812;9.866;2022-11-23T07:42:14;12.77;;;3.83;;
20271;SDS011;10295;49.812;9.866;2022-11-23T07:44:59;19.33;;;3.83;;
20271;SDS011;10295;49.812;9.866;2022-11-23T07:47:27;18.97;;;4.00;;
20271;SDS011;10295;49.812;9.866;2022-11-23T07:49:54;16.07;;;4.17;;
20271;SDS011;10295;49.812;9.866;2022-11-23T07:52:21;14.40;;;3.80;;
20271;SDS011;10295;49.812;9.866;2022-11-23T07:54:48;20.87;;;4.47;;
20271;SDS011;10295;49.812;9.866;2022-11-23T07:57:15;13.20;;;3.60;;
20271;SDS011;10295;49.812;9.866;2022-11-23T07:59:42;14.47;;;3.73;;
20271;SDS011;10295;49.812;9.866;2022-11-23T08:02:10;17.23;;;3.43;;
20271;SDS011;10295;49.812;9.866;2022-11-23T08:04:38;14.70;;;4.33;;
20271;SDS011;10295;49.812;9.866;2022-11-23T08:07:05;12.90;;;3.80;;
20271;SDS011;10295;49.812;9.866;2022-11-23T08:09:32;16.40;;;3.83;;
20271;SDS011;10295;49.812;9.866;2022-11-23T08:12:00;15.23;;;3.47;;
20271;SDS011;10295;49.812;9.866;2022-11-23T08:14:27;14.90;;;4.30;;
20271;SDS011;10295;49.812;9.866;2022-11-23T08:16:54;13.57;;;3.90;;
20271;SDS011;10295;49.812;9.866;2022-11-23T08:19:21;13.00;;;4.60;;
20271;SDS011;10295;49.812;9.866;2022-11-23T08:21:48;18.17;;;3.90;;
20271;SDS011;10295;49.812;9.866;2022-11-23T08:24:15;12.50;;;3.87;;
20271;SDS011;10295;49.812;9.866;2022-11-23T08:26:42;12.97;;;3.47;;
20271;SDS011;10295;49.812;9.866;2022-11-23T08:29:10;16.17;;;3.97;;
20271;SDS011;10295;49.812;9.866;2022-11-23T08:31:37;18.10;;;4.30;;
20271;SDS011;10295;49.812;9.866;2022-11-23T08:34:04;12.20;;;3.93;;
20271;SDS011;10295;49.812;9.866;2022-11-23T08:36:31;15.50;;;3.90;;
20271;SDS011;10295;49.812;9.866;2022-11-23T08:38:58;14.73;;;3.87;;
20271;SDS011;10295;49.812;9.866;2022-11-23T08:41:25;11.07;;;3.70;;
20271;SDS011;10295;49.812;9.866;2022-11-23T08:43:52;17.03;;;4.40;;
20271;SDS011;10295;49.812;9.866;2022-11-23T08:46:20;19.80;;;4.20;;
20271;SDS011;10295;49.812;9.866;2022-11-23T08:48:47;20.10;;;4.47;;
20271;SDS011;10295;49.812;9.866;2022-11-23T08:51:14;15.97;;;4.37;;
20271;SDS011;10295;49.812;9.866;2022-11-23T08:53:47;23.13;;;6.07;;
20271;SDS011;10295;49.812;9.866;2022-11-23T08:56:15;15.87;;;4.47;;
20271;SDS011;10295;49.812;9.866;2022-11-23T08:58:42;17.40;;;4.30;;
20271;SDS011;10295;49.812;9.866;2022-11-23T09:01:11;13.67;;;3.60;;
20271;SDS011;10295;49.812;9.866;2022-11-23T09:03:38;19.90;;;4.33;;
20271;SDS011;10295;49.812;9.866;2022-11-23T09:06:05;15.33;;;3.93;;
20271;SDS011;10295;49.812;9.866;2022-11-23T09:08:33;13.37;;;3.77;;
20271;SDS011;10295;49.812;9.866;2022-11-23T09:11:01;16.53;;;3.93;;
20271;SDS011;10295;49.812;9.866;2022-11-23T09:13:28;18.33;;;4.10;;
20271;SDS011;10295;49.812;9.866;2022-11-23T09:15:56;15.40;;;3.80;;
20271;SDS011;10295;49.812;9.866;2022-11-23T09:18:24;14.97;;;4.60;;
20271;SDS011;10295;49.812;9.866;2022-11-23T09:20:51;15.03;;;4.20;;
20271;SDS011;10295;49.812;9.866;2022-11-23T09:23:18;17.70;;;4.10;;
20271;SDS011;10295;49.812;9.866;2022-11-23T09:25:46;18.40;;;4.40;;
20271;SDS011;10295;49.812;9.866;2022-11-23T09:28:15;15.23;;;4.73;;
20271;SDS011;10295;49.812;9.866;2022-11-23T09:30:45;14.33;;;4.27;;
20271;SDS011;10295;49.812;9.866;2022-11-23T09:33:13;14.63;;;4.10;;
20271;SDS011;10295;49.812;9.866;2022-11-23T09:35:40;19.33;;;4.60;;
20271;SDS011;10295;49.812;9.866;2022-11-23T09:38:09;15.20;;;4.50;;
20271;SDS011;10295;49.812;9.866;2022-11-23T09:40:37;18.50;;;5.20;;
20271;SDS011;10295;49.812;9.866;2022-11-23T09:43:07;16.13;;;4.23;;
20271;SDS011;10295;49.812;9.866;2022-11-23T09:45:45;15.97;;;3.97;;
20271;SDS011;10295;49.812;9.866;2022-11-23T09:48:20;13.57;;;3.90;;
20271;SDS011;10295;49.812;9.866;2022-11-23T09:50:49;17.37;;;4.60;;
20271;SDS011;10295;49.812;9.866;2022-11-23T09:55:54;12.83;;;3.30;;
20271;SDS011;10295;49.812;9.866;2022-11-23T09:58:23;17.60;;;4.20;;
20271;SDS011;10295;49.812;9.866;2022-11-23T10:00:56;11.90;;;4.10;;
20271;SDS011;10295;49.812;9.866;2022-11-23T10:03:26;21.80;;;4.23;;
20271;SDS011;10295;49.812;9.866;2022-11-23T10:05:56;17.87;;;4.73;;
20271;SDS011;10295;49.812;9.866;2022-11-23T10:14:13;15.83;;;3.77;;
20271;SDS011;10295;49.812;9.866;2022-11-23T10:21:33;13.50;;;3.80;;
20271;SDS011;10295;49.812;9.866;2022-11-23T10:26:35;15.13;;;4.47;;
20271;SDS011;10295;49.812;9.866;2022-11-23T10:31:49;13.30;;;4.30;;
20271;SDS011;10295;49.812;9.866;2022-11-23T10:37:07;19.33;;;4.73;;
20271;SDS011;10295;49.812;9.866;2022-11-23T10:39:36;14.77;;;3.80;;
20271;SDS011;10295;49.812;9.866;2022-11-23T10:42:08;14.93;;;4.30;;
20271;SDS011;10295;49.812;9.866;2022-11-23T10:44:40;12.77;;;4.13;;
20271;SDS011;10295;49.812;9.866;2022-11-23T10:47:09;12.97;;;4.23;;
20271;SDS011;10295;49.812;9.866;2022-11-23T10:49:36;13.47;;;4.60;;
20271;SDS011;10295;49.812;9.866;2022-11-23T10:52:05;19.20;;;4.67;;
20271;SDS011;10295;49.812;9.866;2022-11-23T10:54:37;15.87;;;4.50;;
20271;SDS011;10295;49.812;9.866;2022-11-23T11:02:24;13.73;;;4.40;;
20271;SDS011;10295;49.812;9.866;2022-11-23T11:07:37;18.37;;;4.10;;
20271;SDS011;10295;49.812;9.866;2022-11-23T11:10:05;18.77;;;4.23;;
20271;SDS011;10295;49.812;9.866;2022-11-23T11:12:33;15.90;;;4.13;;
20271;SDS011;10295;49.812;9.866;2022-11-23T11:15:02;16.00;;;5.00;;
20271;SDS011;10295;49.812;9.866;2022-11-23T11:17:36;19.73;;;3.63;;
20271;SDS011;10295;49.812;9.866;2022-11-23T11:22:50;16.20;;;3.90;;
20271;SDS011;10295;49.812;9.866;2022-11-23T11:25:36;18.17;;;3.50;;
20271;SDS011;10295;49.812;9.866;2022-11-23T11:28:05;14.30;;;3.25;;
20271;SDS011;10295;49.812;9.866;2022-11-23T11:30:44;14.20;;;3.67;;
20271;SDS011;10295;49.812;9.866;2022-11-23T11:33:17;15.73;;;3.58;;
20271;SDS011;10295;49.812;9.866;2022-11-23T11:35:46;14.93;;;3.78;;
20271;SDS011;10295;49.812;9.866;2022-11-23T11:38:25;12.27;;;3.70;;
20271;SDS011;10295;49.812;9.866;2022-11-23T11:40:54;13.65;;;3.80;;
20271;SDS011;10295;49.812;9.866;2022-11-23T11:43:57;15.32;;;4.07;;
20271;SDS011;10295;49.812;9.866;2022-11-23T11:46:24;15.98;;;3.70;;
20271;SDS011;10295;49.812;9.866;2022-11-23T11:49:06;14.60;;;3.57;;
20271;SDS011;10295;49.812;9.866;2022-11-23T11:51:38;16.17;;;3.67;;
20271;SDS011;10295;49.812;9.866;2022-11-23T11:56:50;14.53;;;3.17;;
20271;SDS011;10295;49.812;9.866;2022-11-23T12:07:19;9.68;;;2.97;;
20271;SDS011;10295;49.812;9.866;2022-11-23T12:09:48;13.63;;;3.30;;
20271;SDS011;10295;49.812;9.866;2022-11-23T12:12:18;13.67;;;3.20;;
20271;SDS011;10295;49.812;9.866;2022-11-23T12:14:54;14.97;;;3.30;;
20271;SDS011;10295;49.812;9.866;2022-11-23T12:22:44;11.07;;;3.00;;
20271;SDS011;10295;49.812;9.866;2022-11-23T12:25:23;12.33;;;2.83;;
20271;SDS011;10295;49.812;9.866;2022-11-23T12:28:00;13.10;;;3.07;;
20271;SDS011;10295;49.812;9.866;2022-11-23T12:35:55;12.77;;;4.30;;
20271;SDS011;10295;49.812;9.866;2022-11-23T12:38:29;15.63;;;2.70;;
20271;SDS011;10295;49.812;9.866;2022-11-23T12:43:44;12.15;;;3.00;;
20271;SDS011;10295;49.812;9.866;2022-11-23T12:54:11;12.52;;;2.40;;
20271;SDS011;10295;49.812;9.866;2022-11-23T12:56:45;11.32;;;2.55;;
20271;SDS011;10295;49.812;9.866;2022-11-23T12:59:14;9.33;;;2.20;;
20271;SDS011;10295;49.812;9.866;2022-11-23T13:01:44;8.15;;;1.67;;
20271;SDS011;10295;49.812;9.866;2022-11-23T13:22:18;11.30;;;2.07;;
20271;SDS011;10295;49.812;9.866;2022-11-23T13:29:57;8.40;;;1.70;;
20271;SDS011;10295;49.812;9.866;2022-11-23T13:32:32;9.13;;;1.80;;
20271;SDS011;10295;49.812;9.866;2022-11-23T13:35:00;8.43;;;1.50;;
20271;SDS011;10295;49.812;9.866;2022-11-23T13:37:27;10.67;;;2.07;;
20271;SDS011;10295;49.812;9.866;2022-11-23T13:42:23;10.83;;;1.73;;
20271;SDS011;10295;49.812;9.866;2022-11-23T13:47:36;9.33;;;1.90;;
20271;SDS011;10295;49.812;9.866;2022-11-23T13:50:16;9.97;;;2.10;;
20271;SDS011;10295;49.812;9.866;2022-11-23T13:52:47;7.77;;;1.80;;
20271;SDS011;10295;49.812;9.866;2022-11-23T13:58:29;13.20;;;1.83;;
20271;SDS011;10295;49.812;9.866;2022-11-23T14:00:49;10.50;;;1.70;;
20271;SDS011;10295;49.812;9.866;2022-11-23T14:06:04;10.43;;;1.53;;
20271;SDS011;10295;49.812;9.866;2022-11-23T14:08:34;8.67;;;1.60;;
20271;SDS011;10295;49.812;9.866;2022-11-23T14:11:09;8.50;;;1.77;;
20271;SDS011;10295;49.812;9.866;2022-11-23T14:13:37;8.83;;;1.60;;
20271;SDS011;10295;49.812;9.866;2022-11-23T14:16:04;11.37;;;2.47;;
20271;SDS011;10295;49.812;9.866;2022-11-23T14:21:06;12.73;;;2.30;;
20271;SDS011;10295;49.812;9.866;2022-11-23T14:29:16;9.33;;;2.10;;
20271;SDS011;10295;49.812;9.866;2022-11-23T14:31:50;12.37;;;2.20;;
20271;SDS011;10295;49.812;9.866;2022-11-23T14:34:26;11.67;;;1.80;;
20271;SDS011;10295;49.812;9.866;2022-11-23T14:37:16;12.27;;;2.00;;
20271;SDS011;10295;49.812;9.866;2022-11-23T14:42:34;9.17;;;2.10;;
20271;SDS011;10295;49.812;9.866;2022-11-23T14:45:05;16.90;;;2.07;;
20271;SDS011;10295;49.812;9.866;2022-11-23T14:47:33;11.53;;;1.90;;
20271;SDS011;10295;49.812;9.866;2022-11-23T14:50:00;10.67;;;2.00;;
20271;SDS011;10295;49.812;9.866;2022-11-23T14:52:28;11.60;;;2.70;;
20271;SDS011;10295;49.812;9.866;2022-11-23T14:54:57;8.50;;;2.10;;
20271;SDS011;10295;49.812;9.866;2022-11-23T14:57:27;10.63;;;1.93;;
20271;SDS011;10295;49.812;9.866;2022-11-23T14:59:56;13.17;;;2.20;;
20271;SDS011;10295;49.812;9.866;2022-11-23T15:02:37;8.73;;;1.77;;
20271;SDS011;10295;49.812;9.866;2022-11-23T15:05:22;9.73;;;2.17;;
20271;SDS011;10295;49.812;9.866;2022-11-23T15:10:29;10.03;;;1.70;;
20271;SDS011;10295;49.812;9.866;2022-11-23T15:12:59;9.03;;;1.60;;
20271;SDS011;10295;49.812;9.866;2022-11-23T15:15:27;9.27;;;2.43;;
20271;SDS011;10295;49.812;9.866;2022-11-23T15:18:03;11.67;;;1.87;;
20271;SDS011;10295;49.812;9.866;2022-11-23T15:20:33;9.70;;;1.80;;
20271;SDS011;10295;49.812;9.866;2022-11-23T15:23:02;12.57;;;2.00;;
20271;SDS011;10295;49.812;9.866;2022-11-23T15:25:29;12.77;;;2.37;;
20271;SDS011;10295;49.812;9.866;2022-11-23T15:27:57;13.47;;;3.67;;
20271;SDS011;10295;49.812;9.866;2022-11-23T15:30:28;10.07;;;3.20;;
20271;SDS011;10295;49.812;9.866;2022-11-23T15:35:23;15.77;;;3.60;;
20271;SDS011;10295;49.812;9.866;2022-11-23T15:37:54;13.03;;;3.30;;
20271;SDS011;10295;49.812;9.866;2022-11-23T15:40:21;11.53;;;2.40;;
20271;SDS011;10295;49.812;9.866;2022-11-23T15:42:49;12.73;;;2.10;;
20271;SDS011;10295;49.812;9.866;2022-11-23T15:48:00;6.73;;;1.70;;
20271;SDS011;10295;49.812;9.866;2022-11-23T15:50:28;10.00;;;1.67;;
20271;SDS011;10295;49.812;9.866;2022-11-23T15:52:59;11.53;;;2.23;;
20271;SDS011;10295;49.812;9.866;2022-11-23T15:55:27;11.33;;;2.03;;
20271;SDS011;10295;49.812;9.866;2022-11-23T15:57:55;11.00;;;1.83;;
20271;SDS011;10295;49.812;9.866;2022-11-23T16:00:23;11.47;;;1.93;;
20271;SDS011;10295;49.812;9.866;2022-11-23T16:02:51;13.03;;;3.17;;
20271;SDS011;10295;49.812;9.866;2022-11-23T16:05:22;11.40;;;1.90;;
20271;SDS011;10295;49.812;9.866;2022-11-23T16:10:23;10.07;;;2.20;;
20271;SDS011;10295;49.812;9.866;2022-11-23T16:12:53;10.37;;;2.20;;
20271;SDS011;10295;49.812;9.866;2022-11-23T16:15:31;11.33;;;1.90;;
20271;SDS011;10295;49.812;9.866;2022-11-23T16:18:02;12.97;;;2.33;;
20271;SDS011;10295;49.812;9.866;2022-11-23T16:20:30;11.23;;;2.03;;
20271;SDS011;10295;49.812;9.866;2022-11-23T16:22:58;11.90;;;2.70;;
20271;SDS011;10295;49.812;9.866;2022-11-23T16:25:30;12.47;;;2.27;;
20271;SDS011;10295;49.812;9.866;2022-11-23T16:30:26;16.17;;;2.90;;
20271;SDS011;10295;49.812;9.866;2022-11-23T16:32:57;9.67;;;2.30;;
20271;SDS011;10295;49.812;9.866;2022-11-23T16:35:24;11.23;;;2.33;;
20271;SDS011;10295;49.812;9.866;2022-11-23T16:37:51;12.07;;;2.43;;
20271;SDS011;10295;49.812;9.866;2022-11-23T16:40:18;10.50;;;2.03;;
20271;SDS011;10295;49.812;9.866;2022-11-23T16:42:49;9.80;;;2.17;;
20271;SDS011;10295;49.812;9.866;2022-11-23T16:45:17;18.50;;;3.93;;
20271;SDS011;10295;49.812;9.866;2022-11-23T16:47:51;12.60;;;2.77;;
20271;SDS011;10295;49.812;9.866;2022-11-23T16:50:18;9.33;;;2.30;;
20271;SDS011;10295;49.812;9.866;2022-11-23T16:52:45;12.63;;;2.50;;
20271;SDS011;10295;49.812;9.866;2022-11-23T16:55:13;12.27;;;2.20;;